sensor_id;sensor_type;location;lat;lon;timestamp;pressure;altitude;pressure_sealevel;temperature;humidity
11017;BME280;54687;50.800;6.772;2023-03-22T00:02:04;61101.28;;;-144.06;60.67
11017;BME280;54687;50.800;6.772;2023-03-22T00:04:31;61097.09;;;-144.06;60.72
11017;BME280;54687;50.800;6.772;2023-03-22T00:06:58;61084.53;;;-144.06;60.86
11017;BME280;54687;50.800;6.772;2023-03-22T00:09:24;61092.91;;;-144.06;60.65
11017;BME280;54687;50.800;6.772;2023-03-22T00:11:51;61099.19;;;-144.06;60.71
11017;BME280;54687;50.800;6.772;2023-03-22T00:14:19;61061.47;;;-144.06;60.45
11017;BME280;54687;50.800;6.772;2023-03-22T00:16:46;61122.25;;;-144.06;60.55
11017;BME280;54687;50.800;6.772;2023-03-22T00:19:13;61067.75;;;-144.06;60.48
11017;BME280;54687;50.800;6.772;2023-03-22T00:21:41;61063.56;;;-144.06;60.38
11017;BME280;54687;50.800;6.772;2023-03-22T00:24:08;61055.19;;;-144.06;60.62
11017;BME280;54687;50.800;6.772;2023-03-22T00:26:34;61107.59;;;-144.06;60.72
11017;BME280;54687;50.800;6.772;2023-03-22T00:29:01;61059.38;;;-144.06;60.57
11017;BME280;54687;50.800;6.772;2023-03-22T00:31:29;61076.13;;;-144.06;60.95
11017;BME280;54687;50.800;6.772;2023-03-22T00:33:55;61059.38;;;-144.06;60.82
11017;BME280;54687;50.800;6.772;2023-03-22T00:36:22;61071.94;;;-144.06;61.09
11017;BME280;54687;50.800;6.772;2023-03-22T00:38:49;61080.34;;;-144.06;61.37
11017;BME280;54687;50.800;6.772;2023-03-22T00:41:17;61046.78;;;-144.06;61.41
11017;BME280;54687;50.800;6.772;2023-03-22T00:43:45;61055.19;;;-144.06;61.48
11017;BME280;54687;50.800;6.772;2023-03-22T00:46:12;61051.00;;;-144.06;61.61
11017;BME280;54687;50.800;6.772;2023-03-22T00:48:41;61046.78;;;-144.06;61.65
11017;BME280;54687;50.800;6.772;2023-03-22T00:51:08;61051.00;;;-144.06;61.43
11017;BME280;54687;50.800;6.772;2023-03-22T00:53:35;61082.44;;;-144.06;61.58
11017;BME280;54687;50.800;6.772;2023-03-22T00:56:02;61069.84;;;-144.06;61.47
11017;BME280;54687;50.800;6.772;2023-03-22T00:58:29;61057.28;;;-144.06;61.41
11017;BME280;54687;50.800;6.772;2023-03-22T01:00:56;61067.75;;;-144.06;61.35
11017;BME280;54687;50.800;6.772;2023-03-22T01:03:22;61046.78;;;-144.06;61.21
11017;BME280;54687;50.800;6.772;2023-03-22T01:05:52;61063.56;;;-144.06;61.13
11017;BME280;54687;50.800;6.772;2023-03-22T01:08:20;61084.53;;;-144.06;60.97
11017;BME280;54687;50.800;6.772;2023-03-22T01:10:48;61065.66;;;-144.06;61.04
11017;BME280;54687;50.800;6.772;2023-03-22T01:13:15;61071.94;;;-144.06;60.86
11017;BME280;54687;50.800;6.772;2023-03-22T01:15:42;61059.38;;;-144.06;60.82
11017;BME280;54687;50.800;6.772;2023-03-22T01:18:09;61063.56;;;-144.06;60.87
11017;BME280;54687;50.800;6.772;2023-03-22T01:20:35;61088.72;;;-144.06;61.00
11017;BME280;54687;50.800;6.772;2023-03-22T01:23:03;61080.34;;;-144.06;61.10
11017;BME280;54687;50.800;6.772;2023-03-22T01:25:30;61055.19;;;-144.06;61.05
11017;BME280;54687;50.800;6.772;2023-03-22T01:27:57;61065.66;;;-144.06;61.29
11017;BME280;54687;50.800;6.772;2023-03-22T01:30:23;61126.44;;;-144.06;61.23
11017;BME280;54687;50.800;6.772;2023-03-22T01:32:50;61057.28;;;-144.06;61.13
11017;BME280;54687;50.800;6.772;2023-03-22T01:35:17;61055.19;;;-144.06;61.20
11017;BME280;54687;50.800;6.772;2023-03-22T01:37:43;61084.53;;;-144.06;61.17
11017;BME280;54687;50.800;6.772;2023-03-22T01:40:13;61076.13;;;-144.06;61.08
11017;BME280;54687;50.800;6.772;2023-03-22T01:42:40;61080.34;;;-144.06;61.29
11017;BME280;54687;50.800;6.772;2023-03-22T01:45:35;61088.72;;;-144.06;61.51
11017;BME280;54687;50.800;6.772;2023-03-22T01:48:05;61057.28;;;-144.06;61.42
11017;BME280;54687;50.800;6.772;2023-03-22T01:50:34;61105.50;;;-144.06;61.67
11017;BME280;54687;50.800;6.772;2023-03-22T01:53:04;61053.09;;;-144.06;61.50
11017;BME280;54687;50.800;6.772;2023-03-22T01:55:34;61074.03;;;-144.06;61.43
11017;BME280;54687;50.800;6.772;2023-03-22T01:58:03;61076.13;;;-144.06;61.41
11017;BME280;54687;50.800;6.772;2023-03-22T02:00:30;61088.72;;;-144.06;61.40
11017;BME280;54687;50.800;6.772;2023-03-22T02:02:57;61099.19;;;-144.06;61.32
11017;BME280;54687;50.800;6.772;2023-03-22T02:05:25;61025.84;;;-144.06;61.52
11017;BME280;54687;50.800;6.772;2023-03-22T02:07:52;61059.38;;;-144.06;61.73
11017;BME280;54687;50.800;6.772;2023-03-22T02:10:21;61059.38;;;-144.06;61.93
11017;BME280;54687;50.800;6.772;2023-03-22T02:12:59;61069.84;;;-144.06;62.11
11017;BME280;54687;50.800;6.772;2023-03-22T02:15:32;61084.53;;;-144.06;62.22
11017;BME280;54687;50.800;6.772;2023-03-22T02:18:13;61080.34;;;-144.06;62.40
11017;BME280;54687;50.800;6.772;2023-03-22T02:21:20;61084.53;;;-144.06;62.37
11017;BME280;54687;50.800;6.772;2023-03-22T02:24:08;61107.59;;;-144.06;62.93
11017;BME280;54687;50.800;6.772;2023-03-22T02:29:50;61076.13;;;-144.06;63.37
11017;BME280;54687;50.800;6.772;2023-03-22T02:35:41;61097.09;;;-144.06;63.92
11017;BME280;54687;50.800;6.772;2023-03-22T02:41:13;61105.50;;;-144.06;64.25
11017;BME280;54687;50.800;6.772;2023-03-22T02:43:50;61042.59;;;-144.06;64.43
11017;BME280;54687;50.800;6.772;2023-03-22T02:46:23;61076.13;;;-144.06;64.73
11017;BME280;54687;50.800;6.772;2023-03-22T02:48:56;61113.88;;;-144.06;64.72
11017;BME280;54687;50.800;6.772;2023-03-22T02:51:31;61126.44;;;-144.06;64.71
11017;BME280;54687;50.800;6.772;2023-03-22T02:54:03;61101.28;;;-144.06;64.80
11017;BME280;54687;50.800;6.772;2023-03-22T02:56:36;61071.94;;;-144.06;64.97
11017;BME280;54687;50.800;6.772;2023-03-22T02:59:07;61042.59;;;-144.06;65.04
11017;BME280;54687;50.800;6.772;2023-03-22T03:01:38;61111.78;;;-144.06;65.09
11017;BME280;54687;50.800;6.772;2023-03-22T03:04:10;61105.50;;;-144.06;65.33
11017;BME280;54687;50.800;6.772;2023-03-22T03:06:42;61067.75;;;-144.06;65.28
11017;BME280;54687;50.800;6.772;2023-03-22T03:09:12;61084.53;;;-144.06;65.24
11017;BME280;54687;50.800;6.772;2023-03-22T03:11:44;61082.44;;;-144.06;65.35
11017;BME280;54687;50.800;6.772;2023-03-22T03:14:19;61088.72;;;-144.06;65.68
11017;BME280;54687;50.800;6.772;2023-03-22T03:16:52;61063.56;;;-144.06;65.61
11017;BME280;54687;50.800;6.772;2023-03-22T03:19:28;61038.41;;;-144.06;65.82
11017;BME280;54687;50.800;6.772;2023-03-22T03:22:00;61086.63;;;-144.06;65.74
11017;BME280;54687;50.800;6.772;2023-03-22T03:24:32;61097.09;;;-144.06;65.70
11017;BME280;54687;50.800;6.772;2023-03-22T03:27:05;61122.25;;;-144.06;65.94
11017;BME280;54687;50.800;6.772;2023-03-22T03:29:38;61113.88;;;-144.06;66.11
11017;BME280;54687;50.800;6.772;2023-03-22T03:32:09;61134.84;;;-144.06;65.90
11017;BME280;54687;50.800;6.772;2023-03-22T03:34:42;61151.59;;;-144.06;65.92
11017;BME280;54687;50.800;6.772;2023-03-22T03:37:17;61090.81;;;-144.06;65.90
11017;BME280;54687;50.800;6.772;2023-03-22T03:39:50;61082.44;;;-144.06;65.86
11017;BME280;54687;50.800;6.772;2023-03-22T03:42:20;61109.69;;;-144.06;65.69
11017;BME280;54687;50.800;6.772;2023-03-22T03:44:48;61088.72;;;-144.06;65.80
11017;BME280;54687;50.800;6.772;2023-03-22T03:47:15;61118.06;;;-144.06;65.63
11017;BME280;54687;50.800;6.772;2023-03-22T03:49:42;61069.84;;;-144.06;65.63
11017;BME280;54687;50.800;6.772;2023-03-22T03:52:09;61084.53;;;-144.06;65.70
11017;BME280;54687;50.800;6.772;2023-03-22T03:54:35;61109.69;;;-144.06;65.83
11017;BME280;54687;50.800;6.772;2023-03-22T03:57:02;61067.75;;;-144.06;66.10
11017;BME280;54687;50.800;6.772;2023-03-22T03:59:30;61084.53;;;-144.06;65.94
11017;BME280;54687;50.800;6.772;2023-03-22T04:01:57;61071.94;;;-144.06;66.01
11017;BME280;54687;50.800;6.772;2023-03-22T04:04:26;61101.28;;;-144.06;66.32
11017;BME280;54687;50.800;6.772;2023-03-22T04:06:54;61099.19;;;-144.06;66.09
11017;BME280;54687;50.800;6.772;2023-03-22T04:09:22;61109.69;;;-144.06;66.07
11017;BME280;54687;50.800;6.772;2023-03-22T04:11:49;61084.53;;;-144.06;66.32
11017;BME280;54687;50.800;6.772;2023-03-22T04:14:15;61097.09;;;-144.06;66.46
11017;BME280;54687;50.800;6.772;2023-03-22T04:16:43;61122.25;;;-144.06;66.49
11017;BME280;54687;50.800;6.772;2023-03-22T04:19:10;61086.63;;;-144.06;66.39
11017;BME280;54687;50.800;6.772;2023-03-22T04:21:37;61126.44;;;-144.06;66.23
11017;BME280;54687;50.800;6.772;2023-03-22T04:24:04;61130.66;;;-144.06;66.24
11017;BME280;54687;50.800;6.772;2023-03-22T04:26:30;61113.88;;;-144.06;66.23
11017;BME280;54687;50.800;6.772;2023-03-22T04:28:57;61065.66;;;-144.06;66.32
11017;BME280;54687;50.800;6.772;2023-03-22T04:31:24;61078.25;;;-144.06;66.18
11017;BME280;54687;50.800;6.772;2023-03-22T04:33:52;61080.34;;;-144.06;66.14
11017;BME280;54687;50.800;6.772;2023-03-22T04:36:21;61105.50;;;-144.06;66.14
11017;BME280;54687;50.800;6.772;2023-03-22T04:38:48;61109.69;;;-144.06;66.29
11017;BME280;54687;50.800;6.772;2023-03-22T04:41:15;61088.72;;;-144.06;66.29
11017;BME280;54687;50.800;6.772;2023-03-22T04:43:42;61122.25;;;-144.06;66.51
11017;BME280;54687;50.800;6.772;2023-03-22T04:46:11;61132.75;;;-144.06;66.56
11017;BME280;54687;50.800;6.772;2023-03-22T04:48:39;61126.44;;;-144.06;66.43
11017;BME280;54687;50.800;6.772;2023-03-22T04:51:09;61113.88;;;-144.06;67.11
11017;BME280;54687;50.800;6.772;2023-03-22T04:53:37;61122.25;;;-144.06;67.14
11017;BME280;54687;50.800;6.772;2023-03-22T04:56:05;61109.69;;;-144.06;66.97
11017;BME280;54687;50.800;6.772;2023-03-22T04:58:33;61122.25;;;-144.06;66.74
11017;BME280;54687;50.800;6.772;2023-03-22T05:01:00;61103.38;;;-144.06;66.59
11017;BME280;54687;50.800;6.772;2023-03-22T05:03:27;61084.53;;;-144.06;66.77
11017;BME280;54687;50.800;6.772;2023-03-22T05:05:56;61145.31;;;-144.06;66.98
11017;BME280;54687;50.800;6.772;2023-03-22T05:08:25;61101.28;;;-144.06;67.00
11017;BME280;54687;50.800;6.772;2023-03-22T05:10:53;61118.06;;;-144.06;66.89
11017;BME280;54687;50.800;6.772;2023-03-22T05:13:21;61143.22;;;-144.06;67.17
11017;BME280;54687;50.800;6.772;2023-03-22T05:15:49;61122.25;;;-144.06;67.10
11017;BME280;54687;50.800;6.772;2023-03-22T05:18:17;61076.13;;;-144.06;67.15
11017;BME280;54687;50.800;6.772;2023-03-22T05:20:45;61128.53;;;-144.06;67.20
11017;BME280;54687;50.800;6.772;2023-03-22T05:23:13;61084.53;;;-144.06;67.22
11017;BME280;54687;50.800;6.772;2023-03-22T05:25:44;61139.03;;;-144.06;67.28
11017;BME280;54687;50.800;6.772;2023-03-22T05:28:11;61097.09;;;-144.06;67.30
11017;BME280;54687;50.800;6.772;2023-03-22T05:30:39;61126.44;;;-144.06;67.22
11017;BME280;54687;50.800;6.772;2023-03-22T05:33:06;61128.53;;;-144.06;66.88
11017;BME280;54687;50.800;6.772;2023-03-22T05:35:35;61101.28;;;-144.06;67.02
11017;BME280;54687;50.800;6.772;2023-03-22T05:38:03;61122.25;;;-144.06;66.87
11017;BME280;54687;50.800;6.772;2023-03-22T05:40:30;61143.22;;;-144.06;66.95
11017;BME280;54687;50.800;6.772;2023-03-22T05:42:58;61101.28;;;-144.06;66.32
11017;BME280;54687;50.800;6.772;2023-03-22T05:45:25;61080.34;;;-144.06;66.19
11017;BME280;54687;50.800;6.772;2023-03-22T05:47:51;61071.94;;;-144.06;65.79
11017;BME280;54687;50.800;6.772;2023-03-22T05:50:21;61122.25;;;-144.06;65.53
11017;BME280;54687;50.800;6.772;2023-03-22T05:52:49;61120.16;;;-144.06;65.01
11017;BME280;54687;50.800;6.772;2023-03-22T05:55:16;61103.38;;;-144.06;64.55
11017;BME280;54687;50.800;6.772;2023-03-22T05:57:44;61130.66;;;-144.06;64.48
11017;BME280;54687;50.800;6.772;2023-03-22T06:00:15;61084.53;;;-144.06;64.22
11017;BME280;54687;50.800;6.772;2023-03-22T06:02:44;61101.28;;;-144.06;63.91
11017;BME280;54687;50.800;6.772;2023-03-22T06:05:12;61051.00;;;-144.06;63.68
11017;BME280;54687;50.800;6.772;2023-03-22T06:07:40;61078.25;;;-144.06;63.30
11017;BME280;54687;50.800;6.772;2023-03-22T06:10:09;61065.66;;;-144.06;63.23
11017;BME280;54687;50.800;6.772;2023-03-22T06:12:36;61109.69;;;-144.06;62.91
11017;BME280;54687;50.800;6.772;2023-03-22T06:15:03;61126.44;;;-144.06;62.58
11017;BME280;54687;50.800;6.772;2023-03-22T06:17:31;61109.69;;;-144.06;62.53
11017;BME280;54687;50.800;6.772;2023-03-22T06:19:58;61092.91;;;-144.06;62.13
11017;BME280;54687;50.800;6.772;2023-03-22T06:22:25;61092.91;;;-144.06;61.67
11017;BME280;54687;50.800;6.772;2023-03-22T06:24:54;61105.50;;;-144.06;61.47
11017;BME280;54687;50.800;6.772;2023-03-22T06:27:21;61097.09;;;-144.06;61.58
11017;BME280;54687;50.800;6.772;2023-03-22T06:29:47;61071.94;;;-144.06;61.20
11017;BME280;54687;50.800;6.772;2023-03-22T06:32:15;61126.44;;;-144.06;61.26
11017;BME280;54687;50.800;6.772;2023-03-22T06:34:43;61067.75;;;-144.06;60.90
11017;BME280;54687;50.800;6.772;2023-03-22T06:37:10;61067.75;;;-144.06;60.70
11017;BME280;54687;50.800;6.772;2023-03-22T06:39:36;61051.00;;;-144.06;60.60
11017;BME280;54687;50.800;6.772;2023-03-22T06:42:03;61063.56;;;-144.06;60.00
11017;BME280;54687;50.800;6.772;2023-03-22T06:44:29;61086.63;;;-144.06;60.00
11017;BME280;54687;50.800;6.772;2023-03-22T06:46:56;61042.59;;;-144.06;59.50
11017;BME280;54687;50.800;6.772;2023-03-22T06:49:23;61055.19;;;-144.06;59.47
11017;BME280;54687;50.800;6.772;2023-03-22T06:51:52;61023.75;;;-144.06;59.16
11017;BME280;54687;50.800;6.772;2023-03-22T06:54:19;61067.75;;;-144.06;59.28
11017;BME280;54687;50.800;6.772;2023-03-22T06:56:45;61055.19;;;-144.06;59.23
11017;BME280;54687;50.800;6.772;2023-03-22T06:59:12;61071.94;;;-144.06;59.03
11017;BME280;54687;50.800;6.772;2023-03-22T07:01:39;61055.19;;;-144.06;58.81
11017;BME280;54687;50.800;6.772;2023-03-22T07:04:05;61009.06;;;-144.06;58.45
11017;BME280;54687;50.800;6.772;2023-03-22T07:06:32;61071.94;;;-144.06;58.43
11017;BME280;54687;50.800;6.772;2023-03-22T07:08:59;61067.75;;;-144.06;58.08
11017;BME280;54687;50.800;6.772;2023-03-22T07:11:27;61071.94;;;-144.06;57.95
11017;BME280;54687;50.800;6.772;2023-03-22T07:13:54;61021.63;;;-144.06;57.71
11017;BME280;54687;50.800;6.772;2023-03-22T07:16:21;61074.03;;;-144.06;57.68
11017;BME280;54687;50.800;6.772;2023-03-22T07:18:48;61061.47;;;-144.06;57.41
11017;BME280;54687;50.800;6.772;2023-03-22T07:21:15;61025.84;;;-144.06;57.24
11017;BME280;54687;50.800;6.772;2023-03-22T07:23:41;61025.84;;;-144.06;56.71
11017;BME280;54687;50.800;6.772;2023-03-22T07:26:09;61042.59;;;-144.06;56.70
11017;BME280;54687;50.800;6.772;2023-03-22T07:28:39;60986.00;;;-144.06;56.47
11017;BME280;54687;50.800;6.772;2023-03-22T07:31:09;61042.59;;;-144.06;55.89
11017;BME280;54687;50.800;6.772;2023-03-22T07:33:37;60983.91;;;-144.06;54.79
11017;BME280;54687;50.800;6.772;2023-03-22T07:36:06;60996.50;;;-144.06;52.33
11017;BME280;54687;50.800;6.772;2023-03-22T07:38:33;61004.88;;;-144.06;52.04
11017;BME280;54687;50.800;6.772;2023-03-22T07:41:00;61013.25;;;-144.06;52.04
11017;BME280;54687;50.800;6.772;2023-03-22T07:43:28;60990.19;;;-144.06;51.41
11017;BME280;54687;50.800;6.772;2023-03-22T07:45:56;61042.59;;;-144.06;51.35
11017;BME280;54687;50.800;6.772;2023-03-22T07:48:23;61019.53;;;-144.06;51.12
11017;BME280;54687;50.800;6.772;2023-03-22T07:50:53;60992.28;;;-144.06;50.92
11017;BME280;54687;50.800;6.772;2023-03-22T07:53:20;61017.44;;;-144.06;50.56
11017;BME280;54687;50.800;6.772;2023-03-22T07:55:47;60992.28;;;-144.06;50.61
11017;BME280;54687;50.800;6.772;2023-03-22T07:58:13;61021.63;;;-144.06;50.27
11017;BME280;54687;50.800;6.772;2023-03-22T08:00:42;61000.69;;;-144.06;50.42
11017;BME280;54687;50.800;6.772;2023-03-22T08:03:09;61011.16;;;-144.06;50.03
11017;BME280;54687;50.800;6.772;2023-03-22T08:05:39;61000.69;;;-144.06;49.13
11017;BME280;54687;50.800;6.772;2023-03-22T08:08:06;60965.03;;;-144.06;49.17
11017;BME280;54687;50.800;6.772;2023-03-22T08:10:33;60992.28;;;-144.06;48.49
11017;BME280;54687;50.800;6.772;2023-03-22T08:13:01;60992.28;;;-144.06;47.88
11017;BME280;54687;50.800;6.772;2023-03-22T08:15:27;60965.03;;;-144.06;47.98
11017;BME280;54687;50.800;6.772;2023-03-22T08:17:56;60988.09;;;-144.06;47.34
11017;BME280;54687;50.800;6.772;2023-03-22T08:20:23;60975.53;;;-144.06;47.44
11017;BME280;54687;50.800;6.772;2023-03-22T08:22:50;60969.22;;;-144.06;47.52
11017;BME280;54687;50.800;6.772;2023-03-22T08:25:18;60956.66;;;-144.06;47.15
11017;BME280;54687;50.800;6.772;2023-03-22T08:27:45;60979.72;;;-144.06;47.42
11017;BME280;54687;50.800;6.772;2023-03-22T08:30:13;60983.91;;;-144.06;47.78
11017;BME280;54687;50.800;6.772;2023-03-22T08:32:40;60998.59;;;-144.06;47.89
11017;BME280;54687;50.800;6.772;2023-03-22T08:35:09;61004.88;;;-144.06;47.58
11017;BME280;54687;50.800;6.772;2023-03-22T08:37:36;60925.22;;;-144.06;46.70
11017;BME280;54687;50.800;6.772;2023-03-22T08:40:05;60946.19;;;-144.06;46.83
11017;BME280;54687;50.800;6.772;2023-03-22T08:42:33;60977.63;;;-144.06;46.91
11017;BME280;54687;50.800;6.772;2023-03-22T08:45:00;60925.22;;;-144.06;46.17
11017;BME280;54687;50.800;6.772;2023-03-22T08:47:27;60933.59;;;-144.06;45.64
11017;BME280;54687;50.800;6.772;2023-03-22T08:49:53;60956.66;;;-144.06;45.52
11017;BME280;54687;50.800;6.772;2023-03-22T08:52:21;60933.59;;;-144.06;45.33
11017;BME280;54687;50.800;6.772;2023-03-22T08:54:48;60946.19;;;-144.06;45.04
11017;BME280;54687;50.800;6.772;2023-03-22T08:57:16;60912.63;;;-144.06;43.93
11017;BME280;54687;50.800;6.772;2023-03-22T08:59:43;60900.06;;;-144.06;44.69
11017;BME280;54687;50.800;6.772;2023-03-22T09:02:10;60941.97;;;-144.06;44.05
11017;BME280;54687;50.800;6.772;2023-03-22T09:04:37;60946.19;;;-144.06;44.32
11017;BME280;54687;50.800;6.772;2023-03-22T09:07:03;60946.19;;;-144.06;44.82
11017;BME280;54687;50.800;6.772;2023-03-22T09:09:31;60908.44;;;-144.06;44.90
11017;BME280;54687;50.800;6.772;2023-03-22T09:11:58;60950.38;;;-144.06;44.61
11017;BME280;54687;50.800;6.772;2023-03-22T09:14:25;60944.09;;;-144.06;44.36
11017;BME280;54687;50.800;6.772;2023-03-22T09:16:51;60933.59;;;-144.06;44.05
11017;BME280;54687;50.800;6.772;2023-03-22T09:19:18;60958.75;;;-144.06;44.20
11017;BME280;54687;50.800;6.772;2023-03-22T09:21:44;60939.88;;;-144.06;44.22
11017;BME280;54687;50.800;6.772;2023-03-22T09:24:11;60921.03;;;-144.06;44.46
11017;BME280;54687;50.800;6.772;2023-03-22T09:26:39;60941.97;;;-144.06;43.88
11017;BME280;54687;50.800;6.772;2023-03-22T09:29:05;60937.78;;;-144.06;44.80
11017;BME280;54687;50.800;6.772;2023-03-22T09:31:34;60921.03;;;-144.06;44.49
11017;BME280;54687;50.800;6.772;2023-03-22T09:34:00;60925.22;;;-144.06;44.25
11017;BME280;54687;50.800;6.772;2023-03-22T09:36:27;60921.03;;;-144.06;43.88
11017;BME280;54687;50.800;6.772;2023-03-22T09:38:54;60904.25;;;-144.06;43.47
11017;BME280;54687;50.800;6.772;2023-03-22T09:41:23;60933.59;;;-144.06;43.17
11017;BME280;54687;50.800;6.772;2023-03-22T09:43:55;60937.78;;;-144.06;42.49
11017;BME280;54687;50.800;6.772;2023-03-22T09:46:28;60921.03;;;-144.06;41.77
11017;BME280;54687;50.800;6.772;2023-03-22T09:48:56;60941.97;;;-144.06;41.65
11017;BME280;54687;50.800;6.772;2023-03-22T09:51:36;60916.84;;;-144.06;40.89
11017;BME280;54687;50.800;6.772;2023-03-22T09:54:11;60897.97;;;-144.06;41.19
11017;BME280;54687;50.800;6.772;2023-03-22T09:56:39;60891.69;;;-144.06;41.55
11017;BME280;54687;50.800;6.772;2023-03-22T09:59:12;60872.81;;;-144.06;41.44
11017;BME280;54687;50.800;6.772;2023-03-22T10:01:44;60845.56;;;-144.06;41.13
11017;BME280;54687;50.800;6.772;2023-03-22T10:04:23;60881.19;;;-144.06;40.81
11017;BME280;54687;50.800;6.772;2023-03-22T10:07:01;60891.69;;;-144.06;41.12
11017;BME280;54687;50.800;6.772;2023-03-22T10:09:34;60858.13;;;-144.06;41.58
11017;BME280;54687;50.800;6.772;2023-03-22T10:12:08;60870.72;;;-144.06;40.57
11017;BME280;54687;50.800;6.772;2023-03-22T10:14:44;60891.69;;;-144.06;40.74
11017;BME280;54687;50.800;6.772;2023-03-22T10:17:17;60910.53;;;-144.06;40.91
11017;BME280;54687;50.800;6.772;2023-03-22T10:19:50;60912.63;;;-144.06;40.99
11017;BME280;54687;50.800;6.772;2023-03-22T10:22:22;60918.94;;;-144.06;41.31
11017;BME280;54687;50.800;6.772;2023-03-22T10:24:50;60904.25;;;-144.06;41.56
11017;BME280;54687;50.800;6.772;2023-03-22T10:27:19;60891.69;;;-144.06;41.06
11017;BME280;54687;50.800;6.772;2023-03-22T10:29:50;60853.94;;;-144.06;40.42
11017;BME280;54687;50.800;6.772;2023-03-22T10:32:28;60874.91;;;-144.06;40.50
11017;BME280;54687;50.800;6.772;2023-03-22T10:34:55;60874.91;;;-144.06;40.11
11017;BME280;54687;50.800;6.772;2023-03-22T10:37:23;60874.91;;;-144.06;39.77
11017;BME280;54687;50.800;6.772;2023-03-22T10:39:54;60879.09;;;-144.06;39.09
11017;BME280;54687;50.800;6.772;2023-03-22T10:42:23;60881.19;;;-144.06;39.56
11017;BME280;54687;50.800;6.772;2023-03-22T10:44:54;60883.28;;;-144.06;39.82
11017;BME280;54687;50.800;6.772;2023-03-22T10:47:27;60895.88;;;-144.06;39.97
11017;BME280;54687;50.800;6.772;2023-03-22T10:49:55;60912.63;;;-144.06;40.03
11017;BME280;54687;50.800;6.772;2023-03-22T10:52:37;60891.69;;;-144.06;40.21
11017;BME280;54687;50.800;6.772;2023-03-22T10:55:09;60889.59;;;-144.06;39.89
11017;BME280;54687;50.800;6.772;2023-03-22T10:57:35;60885.38;;;-144.06;40.10
11017;BME280;54687;50.800;6.772;2023-03-22T11:00:06;60893.78;;;-144.06;40.02
11017;BME280;54687;50.800;6.772;2023-03-22T11:02:44;60908.44;;;-144.06;40.46
11017;BME280;54687;50.800;6.772;2023-03-22T11:05:20;60883.28;;;-144.06;40.62
11017;BME280;54687;50.800;6.772;2023-03-22T11:07:50;60929.41;;;-144.06;40.74
11017;BME280;54687;50.800;6.772;2023-03-22T11:10:23;60874.91;;;-144.06;40.84
11017;BME280;54687;50.800;6.772;2023-03-22T11:12:54;60895.88;;;-144.06;41.24
11017;BME280;54687;50.800;6.772;2023-03-22T11:15:29;60900.06;;;-144.06;41.37
11017;BME280;54687;50.800;6.772;2023-03-22T11:17:58;60904.25;;;-144.06;41.19
11017;BME280;54687;50.800;6.772;2023-03-22T11:20:26;60893.78;;;-144.06;41.62
11017;BME280;54687;50.800;6.772;2023-03-22T11:22:53;60904.25;;;-144.06;41.33
11017;BME280;54687;50.800;6.772;2023-03-22T11:25:25;60908.44;;;-144.06;41.12
11017;BME280;54687;50.800;6.772;2023-03-22T11:27:54;60879.09;;;-144.06;41.29
11017;BME280;54687;50.800;6.772;2023-03-22T11:30:24;60933.59;;;-144.06;41.43
11017;BME280;54687;50.800;6.772;2023-03-22T11:33:02;60874.91;;;-144.06;40.95
11017;BME280;54687;50.800;6.772;2023-03-22T11:35:37;60916.84;;;-144.06;40.79
11017;BME280;54687;50.800;6.772;2023-03-22T11:38:04;60874.91;;;-144.06;40.83
11017;BME280;54687;50.800;6.772;2023-03-22T11:40:34;60906.34;;;-144.06;40.96
11017;BME280;54687;50.800;6.772;2023-03-22T11:43:10;60925.22;;;-144.06;40.77
11017;BME280;54687;50.800;6.772;2023-03-22T11:45:43;60925.22;;;-144.06;40.76
11017;BME280;54687;50.800;6.772;2023-03-22T11:48:14;60900.06;;;-144.06;41.17
11017;BME280;54687;50.800;6.772;2023-03-22T11:50:43;60929.41;;;-144.06;41.43
11017;BME280;54687;50.800;6.772;2023-03-22T11:53:12;60918.94;;;-144.06;41.84
11017;BME280;54687;50.800;6.772;2023-03-22T11:55:41;60925.22;;;-144.06;41.82
11017;BME280;54687;50.800;6.772;2023-03-22T11:58:22;60923.13;;;-144.06;42.05
11017;BME280;54687;50.800;6.772;2023-03-22T12:00:51;60946.19;;;-144.06;42.43
11017;BME280;54687;50.800;6.772;2023-03-22T12:03:22;60933.59;;;-144.06;42.78
11017;BME280;54687;50.800;6.772;2023-03-22T12:05:51;60906.34;;;-144.06;42.43
11017;BME280;54687;50.800;6.772;2023-03-22T12:08:25;60881.19;;;-144.06;42.50
11017;BME280;54687;50.800;6.772;2023-03-22T12:10:57;60937.78;;;-144.06;42.48
11017;BME280;54687;50.800;6.772;2023-03-22T12:13:31;60954.56;;;-144.06;42.62
11017;BME280;54687;50.800;6.772;2023-03-22T12:16:04;60946.19;;;-144.06;43.04
11017;BME280;54687;50.800;6.772;2023-03-22T12:18:35;60929.41;;;-144.06;42.85
11017;BME280;54687;50.800;6.772;2023-03-22T12:21:04;60977.63;;;-144.06;43.47
11017;BME280;54687;50.800;6.772;2023-03-22T12:23:33;60904.25;;;-144.06;43.22
11017;BME280;54687;50.800;6.772;2023-03-22T12:26:03;60929.41;;;-144.06;43.49
11017;BME280;54687;50.800;6.772;2023-03-22T12:28:36;60956.66;;;-144.06;43.48
11017;BME280;54687;50.800;6.772;2023-03-22T12:31:06;60992.28;;;-144.06;43.47
11017;BME280;54687;50.800;6.772;2023-03-22T12:33:42;60916.84;;;-144.06;43.55
11017;BME280;54687;50.800;6.772;2023-03-22T12:36:14;60975.53;;;-144.06;44.03
11017;BME280;54687;50.800;6.772;2023-03-22T12:38:45;60921.03;;;-144.06;43.39
11017;BME280;54687;50.800;6.772;2023-03-22T12:41:15;60933.59;;;-144.06;43.75
11017;BME280;54687;50.800;6.772;2023-03-22T12:43:49;60921.03;;;-144.06;43.84
11017;BME280;54687;50.800;6.772;2023-03-22T12:46:19;60971.34;;;-144.06;44.16
11017;BME280;54687;50.800;6.772;2023-03-22T12:48:51;60952.47;;;-144.06;44.71
11017;BME280;54687;50.800;6.772;2023-03-22T12:51:21;60937.78;;;-144.06;44.59
11017;BME280;54687;50.800;6.772;2023-03-22T12:53:49;60969.22;;;-144.06;44.67
11017;BME280;54687;50.800;6.772;2023-03-22T12:56:20;60941.97;;;-144.06;44.74
11017;BME280;54687;50.800;6.772;2023-03-22T12:58:51;60983.91;;;-144.06;44.76
11017;BME280;54687;50.800;6.772;2023-03-22T13:01:23;60969.22;;;-144.06;44.72